createdAt,value
2019-01-16T00:00:45.600Z,0.50
2019-01-16T00:03:35.754Z,0.40
2019-01-16T00:06:40.436Z,0.50
2019-01-16T00:09:32.290Z,0.50
2019-01-16T00:12:20.129Z,0.50
2019-01-16T00:15:14.878Z,0.73
2019-01-16T00:18:02.439Z,0.50
2019-01-16T00:20:42.616Z,0.30
2019-01-16T00:23:30.225Z,0.40
2019-01-16T00:26:31.102Z,0.60
2019-01-16T00:29:19.034Z,0.30
2019-01-16T00:32:23.213Z,0.47
2019-01-16T00:35:12.896Z,0.30
2019-01-16T00:38:01.581Z,0.30
2019-01-16T00:40:50.595Z,0.40
2019-01-16T00:43:32.572Z,0.30
2019-01-16T00:46:21.690Z,0.70
2019-01-16T00:49:18.823Z,0.50
2019-01-16T00:52:01.047Z,0.30
2019-01-16T00:55:07.738Z,0.40
2019-01-16T00:58:02.520Z,0.60
2019-01-16T01:01:06.036Z,0.50
2019-01-16T01:03:53.445Z,0.60
2019-01-16T01:06:48.050Z,0.60
2019-01-16T01:09:39.884Z,0.70
2019-01-16T01:12:20.482Z,1.00
2019-01-16T01:15:08.396Z,1.00
2019-01-16T01:18:05.070Z,1.33
2019-01-16T01:20:57.578Z,1.30
2019-01-16T01:23:49.083Z,0.93
2019-01-16T01:26:56.521Z,1.17
2019-01-16T01:29:34.232Z,1.40
2019-01-16T01:32:26.645Z,0.80
2019-01-16T01:35:14.818Z,0.73
2019-01-16T01:38:02.163Z,0.80
2019-01-16T01:40:56.709Z,0.80
2019-01-16T01:43:42.167Z,0.53
2019-01-16T01:46:39.871Z,0.80
2019-01-16T01:49:22.752Z,0.60
2019-01-16T01:52:14.740Z,0.50
2019-01-16T01:55:00.385Z,0.60
2019-01-16T01:57:47.657Z,0.40
2019-01-16T02:00:47.406Z,0.67
2019-01-16T02:03:34.874Z,0.53
2019-01-16T02:06:22.575Z,0.57
2019-01-16T02:09:14.690Z,0.60
2019-01-16T02:12:02.743Z,0.63
2019-01-16T02:14:54.143Z,0.83
2019-01-16T02:17:58.298Z,0.83
2019-01-16T02:20:47.072Z,0.80
2019-01-16T02:23:38.998Z,1.00
2019-01-16T02:26:27.018Z,0.80
2019-01-16T02:29:16.287Z,0.97
2019-01-16T02:32:07.849Z,0.60
2019-01-16T02:34:53.080Z,0.80
2019-01-16T02:37:43.040Z,0.70
2019-01-16T02:40:35.404Z,0.70
2019-01-16T02:43:16.534Z,0.57
2019-01-16T02:46:04.226Z,0.70
2019-01-16T02:48:59.003Z,0.60
2019-01-16T02:51:54.075Z,0.60
2019-01-16T02:54:51.755Z,0.70
2019-01-16T02:57:52.161Z,0.40
2019-01-16T03:00:38.417Z,0.50
2019-01-16T03:03:36.907Z,0.40
2019-01-16T03:06:34.703Z,0.40
2019-01-16T03:09:40.421Z,0.50
2019-01-16T03:12:26.226Z,0.63
2019-01-16T03:15:13.980Z,0.57
2019-01-16T03:18:03.129Z,0.57
2019-01-16T03:20:50.623Z,0.60
2019-01-16T03:23:38.330Z,0.83
2019-01-16T03:26:32.994Z,0.67
2019-01-16T03:29:22.157Z,0.77
2019-01-16T03:32:09.424Z,0.70
2019-01-16T03:35:01.180Z,0.73
2019-01-16T03:37:44.176Z,0.70
2019-01-16T03:40:39.333Z,0.70
2019-01-16T03:43:18.529Z,0.70
2019-01-16T03:46:13.258Z,0.90
2019-01-16T03:49:00.653Z,0.83
2019-01-16T03:52:04.592Z,0.90
2019-01-16T03:54:53.369Z,1.00
2019-01-16T03:57:51.745Z,1.00
2019-01-16T04:00:39.020Z,0.80
2019-01-16T04:03:26.607Z,0.73
2019-01-16T04:06:15.420Z,1.00
2019-01-16T04:09:04.503Z,1.00
2019-01-16T04:11:52.120Z,1.07
2019-01-16T04:14:40.078Z,1.00
2019-01-16T04:17:38.156Z,0.90
2019-01-16T04:20:22.893Z,0.90
2019-01-16T04:23:01.764Z,0.90
2019-01-16T04:26:00.034Z,1.03
2019-01-16T04:28:41.390Z,1.00
2019-01-16T04:31:33.534Z,0.87
2019-01-16T04:34:31.311Z,0.80
2019-01-16T04:37:26.221Z,0.73
2019-01-16T04:40:13.775Z,0.70
2019-01-16T04:43:01.606Z,0.80
2019-01-16T04:45:44.087Z,0.93
2019-01-16T04:48:31.722Z,0.63
2019-01-16T04:51:20.502Z,0.60
2019-01-16T04:54:12.128Z,0.90
2019-01-16T04:57:00.908Z,0.70
2019-01-16T04:59:55.878Z,0.97
2019-01-16T05:02:44.656Z,0.67
2019-01-16T05:05:48.663Z,0.80
2019-01-16T05:08:36.026Z,0.70
2019-01-16T05:11:23.995Z,0.70
2019-01-16T05:14:06.804Z,0.80
2019-01-16T05:17:10.936Z,0.90
2019-01-16T05:19:58.426Z,0.97
2019-01-16T05:22:57.975Z,0.90
2019-01-16T05:25:46.756Z,1.00
2019-01-16T05:28:35.892Z,0.73
2019-01-16T05:31:30.812Z,0.80
2019-01-16T05:34:18.835Z,1.03
2019-01-16T05:37:13.822Z,0.83
2019-01-16T05:40:09.165Z,0.90
2019-01-16T05:43:01.039Z,0.70
2019-01-16T05:46:01.841Z,1.00
2019-01-16T05:48:56.606Z,0.97
2019-01-16T05:51:44.240Z,1.07
2019-01-16T05:54:45.268Z,0.83
2019-01-16T05:57:34.362Z,1.03
2019-01-16T06:00:39.587Z,0.60
2019-01-16T06:03:29.700Z,0.80
2019-01-16T06:06:17.290Z,0.70
2019-01-16T06:09:17.017Z,0.60
2019-01-16T06:12:11.487Z,0.80
2019-01-16T06:15:12.374Z,0.77
2019-01-16T06:18:07.075Z,0.90
2019-01-16T06:20:54.730Z,0.80
2019-01-16T06:23:46.619Z,0.80
2019-01-16T06:26:35.603Z,0.90
2019-01-16T06:29:23.117Z,0.87
2019-01-16T06:32:18.122Z,0.97
2019-01-16T06:35:15.921Z,1.10
2019-01-16T06:38:14.279Z,1.00
2019-01-16T06:41:02.153Z,0.80
2019-01-16T06:44:00.658Z,1.27
2019-01-16T06:46:50.784Z,0.80
2019-01-16T06:49:42.836Z,1.00
2019-01-16T06:52:33.829Z,0.90
2019-01-16T06:55:15.616Z,1.00
2019-01-16T06:58:01.817Z,1.00
2019-01-16T07:01:06.052Z,1.03
2019-01-16T07:03:57.550Z,1.10
2019-01-16T07:07:04.656Z,0.93
2019-01-16T07:10:00.988Z,1.33
2019-01-16T07:12:48.869Z,1.30
2019-01-16T07:15:36.107Z,0.93
2019-01-16T07:18:22.759Z,1.50
2019-01-16T07:21:20.264Z,1.10
2019-01-16T07:24:03.637Z,1.10
2019-01-16T07:26:58.765Z,1.07
2019-01-16T07:29:46.501Z,1.00
2019-01-16T07:32:33.936Z,1.00
2019-01-16T07:35:24.106Z,1.10
2019-01-16T07:38:11.690Z,1.20
2019-01-16T07:40:55.598Z,1.00
2019-01-16T07:43:36.333Z,0.87
2019-01-16T07:46:28.609Z,1.00
2019-01-16T07:49:16.629Z,0.83
2019-01-16T07:51:59.436Z,0.70
2019-01-16T07:54:54.164Z,1.00
2019-01-16T07:57:40.997Z,0.90
2019-01-16T08:00:31.975Z,0.93
2019-01-16T08:03:20.821Z,0.97
2019-01-16T08:06:08.326Z,0.93
2019-01-16T08:09:03.274Z,0.70
2019-01-16T08:11:50.624Z,0.80
2019-01-16T08:14:38.423Z,0.87
2019-01-16T08:17:36.336Z,0.73
2019-01-16T08:20:25.332Z,0.90
2019-01-16T08:23:15.223Z,0.80
2019-01-16T08:26:04.297Z,0.70
2019-01-16T08:28:51.883Z,0.90
2019-01-16T08:31:39.675Z,0.80
2019-01-16T08:34:37.260Z,1.07
2019-01-16T08:37:24.977Z,0.80
2019-01-16T08:40:20.038Z,0.80
2019-01-16T08:43:18.146Z,0.90
2019-01-16T08:46:07.925Z,0.83
2019-01-16T08:49:03.049Z,0.70
2019-01-16T08:51:55.263Z,1.00
2019-01-16T08:54:49.971Z,0.77
2019-01-16T08:57:37.280Z,1.00
2019-01-16T09:00:38.440Z,0.90
2019-01-16T09:03:21.955Z,0.90
2019-01-16T09:06:07.966Z,0.70
2019-01-16T09:09:08.389Z,1.00
2019-01-16T09:12:15.290Z,1.00
2019-01-16T09:15:02.676Z,1.03
2019-01-16T09:17:44.599Z,1.30
2019-01-16T09:20:30.984Z,1.17
2019-01-16T09:23:14.334Z,1.13
2019-01-16T09:26:18.478Z,1.50
2019-01-16T09:29:10.101Z,1.30
2019-01-16T09:31:59.044Z,1.57
2019-01-16T09:34:48.092Z,1.67
2019-01-16T09:37:35.441Z,0.90
2019-01-16T09:40:29.611Z,1.20
2019-01-16T09:43:27.798Z,1.30
2019-01-16T09:46:22.443Z,1.10
2019-01-16T09:49:11.218Z,1.00
2019-01-16T09:51:56.164Z,1.13
2019-01-16T09:54:47.972Z,1.80
2019-01-16T09:57:46.135Z,0.97
2019-01-16T10:00:49.370Z,1.07
2019-01-16T10:03:37.350Z,1.10
2019-01-16T10:06:19.351Z,1.03
2019-01-16T10:09:14.358Z,1.20
2019-01-16T10:11:57.676Z,1.20
2019-01-16T10:14:53.396Z,1.07
2019-01-16T10:17:45.319Z,1.10
2019-01-16T10:20:32.767Z,1.10
2019-01-16T10:23:21.607Z,1.00
2019-01-16T10:26:02.249Z,1.17
2019-01-16T10:28:53.927Z,0.90
2019-01-16T10:31:54.976Z,1.03
2019-01-16T10:34:42.343Z,1.23
2019-01-16T10:37:29.742Z,1.00
2019-01-16T10:40:24.701Z,0.90
2019-01-16T10:43:16.567Z,1.00
2019-01-16T10:46:06.172Z,0.90
2019-01-16T10:48:55.076Z,0.80
2019-01-16T10:51:42.641Z,1.10
2019-01-16T10:54:34.541Z,0.80
2019-01-16T10:57:32.191Z,1.00
2019-01-16T11:00:39.423Z,0.90
2019-01-16T11:03:25.698Z,0.90
2019-01-16T11:06:20.179Z,0.93
2019-01-16T11:09:09.033Z,0.70
2019-01-16T11:11:57.180Z,1.00
2019-01-16T11:14:48.522Z,1.00
2019-01-16T11:17:37.394Z,1.00
2019-01-16T11:20:28.148Z,1.00
2019-01-16T11:23:26.330Z,0.90
2019-01-16T11:26:23.928Z,0.90
2019-01-16T11:29:11.854Z,0.83
2019-01-16T11:31:59.083Z,0.90
2019-01-16T11:34:50.806Z,1.00
2019-01-16T11:37:38.095Z,0.80
2019-01-16T11:40:36.525Z,0.90
2019-01-16T11:43:25.785Z,0.60
2019-01-16T11:46:11.356Z,0.80
2019-01-16T11:49:12.432Z,0.80
2019-01-16T11:52:01.475Z,0.80
2019-01-16T11:54:59.092Z,0.40
2019-01-16T11:57:57.220Z,0.50
2019-01-16T12:00:52.173Z,0.77
2019-01-16T12:03:42.541Z,0.67
2019-01-16T12:06:31.998Z,0.57
2019-01-16T12:09:22.120Z,0.60
2019-01-16T12:12:09.776Z,0.67
2019-01-16T12:15:07.388Z,0.73
2019-01-16T12:18:00.743Z,0.53
2019-01-16T12:20:52.886Z,0.53
2019-01-16T12:23:56.974Z,0.70
2019-01-16T12:26:44.735Z,0.67
2019-01-16T12:29:46.794Z,0.50
2019-01-16T12:32:28.907Z,0.53
2019-01-16T12:35:32.863Z,0.60
2019-01-16T12:38:24.509Z,0.50
2019-01-16T12:41:09.188Z,0.47
2019-01-16T12:44:03.309Z,0.40
2019-01-16T12:46:56.239Z,0.40
2019-01-16T12:49:41.570Z,0.40
2019-01-16T12:52:27.044Z,0.60
2019-01-16T12:55:14.500Z,0.30
2019-01-16T12:58:02.372Z,0.27
2019-01-16T13:00:49.975Z,0.40
2019-01-16T13:03:38.254Z,0.30
2019-01-16T13:06:35.898Z,0.30
2019-01-16T13:09:40.744Z,0.40
2019-01-16T13:12:21.539Z,0.20
2019-01-16T13:15:22.756Z,0.40
2019-01-16T13:18:14.272Z,0.40
2019-01-16T13:21:06.405Z,0.30
2019-01-16T13:23:58.164Z,0.40
2019-01-16T13:26:47.320Z,0.30
2019-01-16T13:29:37.582Z,0.30
2019-01-16T13:32:31.890Z,0.27
2019-01-16T13:35:19.158Z,0.20
2019-01-16T13:38:26.021Z,0.20
2019-01-16T13:41:14.972Z,0.30
2019-01-16T13:43:59.306Z,0.20
2019-01-16T13:46:46.285Z,0.30
2019-01-16T13:49:31.369Z,0.30
2019-01-16T13:52:09.579Z,0.30
2019-01-16T13:55:01.947Z,0.50
2019-01-16T13:57:50.658Z,0.40
2019-01-16T14:00:38.452Z,0.30
2019-01-16T14:03:36.097Z,0.50
2019-01-16T14:06:31.577Z,0.57
2019-01-16T14:09:23.936Z,0.40
2019-01-16T14:12:25.386Z,1.00
2019-01-16T14:15:16.914Z,2.60
2019-01-16T14:18:24.037Z,1.80
2019-01-16T14:21:18.658Z,1.50
2019-01-16T14:24:02.431Z,2.20
2019-01-16T14:27:00.433Z,2.17
2019-01-16T14:30:01.188Z,1.00
2019-01-16T14:32:50.162Z,1.10
2019-01-16T14:35:47.929Z,0.70
2019-01-16T14:38:35.739Z,0.70
2019-01-16T14:41:18.427Z,0.53
2019-01-16T14:44:20.001Z,0.50
2019-01-16T14:47:17.846Z,0.80
2019-01-16T14:50:18.571Z,0.80
2019-01-16T14:53:01.037Z,0.40
2019-01-16T14:55:47.115Z,0.30
2019-01-16T14:58:49.001Z,0.30
2019-01-16T15:01:32.076Z,0.20
2019-01-16T15:04:19.859Z,0.40
2019-01-16T15:07:03.006Z,0.30
2019-01-16T15:09:52.053Z,0.30
2019-01-16T15:12:39.431Z,0.33
2019-01-16T15:15:27.595Z,0.30
2019-01-16T15:18:19.331Z,0.20
2019-01-16T15:21:17.107Z,0.40
2019-01-16T15:24:06.823Z,0.40
2019-01-16T15:27:02.013Z,0.50
2019-01-16T15:30:08.813Z,0.30
2019-01-16T15:33:01.014Z,0.40
2019-01-16T15:35:49.719Z,0.30
2019-01-16T15:38:51.342Z,0.50
2019-01-16T15:41:52.370Z,0.90
2019-01-16T15:44:47.701Z,1.63
2019-01-16T15:47:48.373Z,2.87
2019-01-16T15:50:40.150Z,2.20
2019-01-16T15:53:27.329Z,3.10
2019-01-16T15:56:16.326Z,2.00
2019-01-16T15:59:08.125Z,2.30
2019-01-16T16:01:52.147Z,2.23
2019-01-16T16:04:39.653Z,2.50
2019-01-16T16:07:34.642Z,2.40
2019-01-16T16:10:14.191Z,3.37
2019-01-16T16:13:02.114Z,2.93
2019-01-16T16:15:50.844Z,2.60
2019-01-16T16:18:43.104Z,3.23
2019-01-16T16:21:31.826Z,2.03
2019-01-16T16:24:26.581Z,3.30
2019-01-16T16:27:07.378Z,2.50
2019-01-16T16:29:55.094Z,2.20
2019-01-16T16:32:56.211Z,2.50
2019-01-16T16:35:45.064Z,2.40
2019-01-16T16:38:33.790Z,2.60
2019-01-16T16:41:23.103Z,2.73
2019-01-16T16:44:10.436Z,2.50
2019-01-16T16:47:02.123Z,3.17
2019-01-16T16:49:49.545Z,2.70
2019-01-16T16:52:39.863Z,3.07
2019-01-16T16:55:43.630Z,2.80
2019-01-16T16:58:35.111Z,2.33
2019-01-16T17:01:28.210Z,2.03
2019-01-16T17:04:16.003Z,2.17
2019-01-16T17:07:13.815Z,3.00
2019-01-16T17:10:02.708Z,2.70
2019-01-16T17:13:03.485Z,3.13
2019-01-16T17:16:01.392Z,3.07
2019-01-16T17:18:58.981Z,3.27
2019-01-16T17:21:53.913Z,2.70
2019-01-16T17:24:45.619Z,4.37
2019-01-16T17:27:33.674Z,3.07
2019-01-16T17:30:25.483Z,2.90
2019-01-16T17:33:20.526Z,3.13
2019-01-16T17:36:15.240Z,4.13
2019-01-16T17:39:16.573Z,3.20
2019-01-16T17:42:14.357Z,3.27
2019-01-16T17:45:03.584Z,3.70
2019-01-16T17:47:52.372Z,4.17
2019-01-16T17:50:35.065Z,2.90
2019-01-16T17:53:22.865Z,3.03
2019-01-16T17:56:16.691Z,2.63
2019-01-16T17:59:11.392Z,2.87
2019-01-16T18:02:06.390Z,2.47
2019-01-16T18:04:55.104Z,2.73
2019-01-16T18:07:55.886Z,3.00
2019-01-16T18:10:47.387Z,2.70
2019-01-16T18:13:35.224Z,3.00
2019-01-16T18:16:42.337Z,2.63
2019-01-16T18:19:31.500Z,2.73
2019-01-16T18:22:19.743Z,2.30
2019-01-16T18:25:08.713Z,2.10
2019-01-16T18:27:52.493Z,2.23
2019-01-16T18:30:40.572Z,2.80
2019-01-16T18:33:32.461Z,2.40
2019-01-16T18:36:18.910Z,3.00
2019-01-16T18:39:06.169Z,2.57
2019-01-16T18:41:53.775Z,2.77
2019-01-16T18:44:41.253Z,2.70
2019-01-16T18:47:33.724Z,2.07
2019-01-16T18:50:34.618Z,2.93
2019-01-16T18:53:22.353Z,2.67
2019-01-16T18:56:09.637Z,2.57
2019-01-16T18:59:03.146Z,3.00
2019-01-16T19:02:10.444Z,2.57
2019-01-16T19:05:17.607Z,3.43
2019-01-16T19:08:15.160Z,2.70
2019-01-16T19:10:53.766Z,3.43
2019-01-16T19:13:41.168Z,2.63
2019-01-16T19:16:30.266Z,3.33
2019-01-16T19:19:17.929Z,2.40
2019-01-16T19:22:06.152Z,2.20
2019-01-16T19:25:00.903Z,2.33
2019-01-16T19:27:49.890Z,1.93
2019-01-16T19:30:48.001Z,2.03
2019-01-16T19:33:26.809Z,2.20
2019-01-16T19:36:20.618Z,2.00
2019-01-16T19:39:15.629Z,2.00
2019-01-16T19:42:10.574Z,1.90
2019-01-16T19:45:14.698Z,1.73
2019-01-16T19:48:18.715Z,2.03
2019-01-16T19:51:10.656Z,2.10
2019-01-16T19:53:50.457Z,1.90
2019-01-16T19:56:36.164Z,1.20
2019-01-16T19:59:37.235Z,0.53
2019-01-16T20:02:25.390Z,0.90
2019-01-16T20:05:12.998Z,0.90
2019-01-16T20:07:59.603Z,0.80
2019-01-16T20:10:54.323Z,0.90
2019-01-16T20:13:39.896Z,1.10
2019-01-16T20:16:38.092Z,0.83
2019-01-16T20:19:26.192Z,0.50
2019-01-16T20:22:16.952Z,0.87
2019-01-16T20:24:58.814Z,0.80
2019-01-16T20:27:48.417Z,0.80
2019-01-16T20:30:36.427Z,0.57
2019-01-16T20:33:23.648Z,0.70
2019-01-16T20:36:11.301Z,0.80
2019-01-16T20:38:58.568Z,0.37
2019-01-16T20:41:46.245Z,0.50
2019-01-16T20:44:39.530Z,0.97
2019-01-16T20:47:22.514Z,1.00
2019-01-16T20:50:08.343Z,0.80
2019-01-16T20:53:06.581Z,0.70
2019-01-16T20:56:01.607Z,0.70
2019-01-16T20:58:49.418Z,0.80
2019-01-16T21:01:47.554Z,0.60
2019-01-16T21:04:51.823Z,0.50
2019-01-16T21:07:43.577Z,0.60
2019-01-16T21:10:33.623Z,0.70
2019-01-16T21:13:22.717Z,0.70
2019-01-16T21:16:09.333Z,0.43
2019-01-16T21:18:47.944Z,0.50
2019-01-16T21:21:43.863Z,0.43
2019-01-16T21:24:31.569Z,0.70
2019-01-16T21:27:20.750Z,0.50
2019-01-16T21:30:09.553Z,0.50
2019-01-16T21:33:10.283Z,0.43
2019-01-16T21:35:58.977Z,0.40
2019-01-16T21:38:50.925Z,0.50
2019-01-16T21:41:40.554Z,0.40
2019-01-16T21:44:38.498Z,0.43
2019-01-16T21:47:42.214Z,0.50
2019-01-16T21:50:29.307Z,0.33
2019-01-16T21:53:18.504Z,0.40
2019-01-16T21:56:07.560Z,0.70
2019-01-16T21:58:55.024Z,0.20
2019-01-16T22:01:56.109Z,0.40
2019-01-16T22:04:43.769Z,0.50
2019-01-16T22:07:33.017Z,0.60
2019-01-16T22:10:24.906Z,0.30
2019-01-16T22:13:31.992Z,0.50
2019-01-16T22:16:20.955Z,0.40
2019-01-16T22:19:09.860Z,0.33
2019-01-16T22:22:01.391Z,0.30
2019-01-16T22:24:54.148Z,0.27
2019-01-16T22:27:41.470Z,0.30
2019-01-16T22:30:51.095Z,0.47
2019-01-16T22:33:38.591Z,0.23
2019-01-16T22:36:30.476Z,0.33
2019-01-16T22:39:21.987Z,0.30
2019-01-16T22:42:04.383Z,0.57
2019-01-16T22:44:51.547Z,0.23
2019-01-16T22:47:46.516Z,0.50
2019-01-16T22:50:38.002Z,0.50
2019-01-16T22:53:23.730Z,0.30
2019-01-16T22:56:09.679Z,0.50
2019-01-16T22:59:00.215Z,0.40
2019-01-16T23:01:46.559Z,0.40
2019-01-16T23:04:36.499Z,0.60
2019-01-16T23:07:15.366Z,0.70
2019-01-16T23:10:04.584Z,0.80
2019-01-16T23:12:45.719Z,0.60
2019-01-16T23:15:52.980Z,0.60
2019-01-16T23:18:40.301Z,0.50
2019-01-16T23:21:29.412Z,0.40
2019-01-16T23:24:36.372Z,0.80
2019-01-16T23:27:28.076Z,0.70
2019-01-16T23:30:13.807Z,0.67
2019-01-16T23:33:08.769Z,0.50
2019-01-16T23:36:06.839Z,0.80
2019-01-16T23:39:11.040Z,0.40
2019-01-16T23:41:57.586Z,0.70
2019-01-16T23:44:49.908Z,0.60
2019-01-16T23:47:35.900Z,0.60
2019-01-16T23:50:29.678Z,0.80
2019-01-16T23:53:17.190Z,0.80
2019-01-16T23:56:06.264Z,0.50
2019-01-16T23:58:49.292Z,0.80
